Time;durP1;ratioP1;P1;durP2;ratioP2;P2;SDS_P1;SDS_P2;PMS_P1;PMS_P2;Temp;Humidity;BMP_temperature;BMP_pressure;BME280_temperature;BME280_humidity;BME280_pressure;Samples;Min_cycle;Max_cycle;Signal;HPM_P1;HPM_P2
2023/10/04 00:01:48;;;;;;;6.35;1.60;;;;;;;;;;5033021;28;20045;-63
2023/10/04 00:04:14;;;;;;;9.13;1.90;;;;;;;;;;5032248;28;20072;-63
2023/10/04 00:06:41;;;;;;;7.65;1.60;;;;;;;;;;5032460;28;20046;-63
2023/10/04 00:09:09;;;;;;;8.27;1.60;;;;;;;;;;5032984;28;20456;-63
2023/10/04 00:11:35;;;;;;;6.75;1.83;;;;;;;;;;5032580;28;20068;-63
2023/10/04 00:14:01;;;;;;;7.75;1.60;;;;;;;;;;5032624;28;20052;-63
2023/10/04 00:16:27;;;;;;;7.95;1.73;;;;;;;;;;5034112;28;20037;-63
2023/10/04 00:18:56;;;;;;;7.53;1.80;;;;;;;;;;5052381;28;20598;-63
2023/10/04 00:21:24;;;;;;;7.65;1.63;;;;;;;;;;5052427;28;20044;-63
2023/10/04 00:23:50;;;;;;;8.55;1.58;;;;;;;;;;5051904;28;20037;-63
2023/10/04 00:26:18;;;;;;;10.23;2.17;;;;;;;;;;5040596;28;20527;-63
2023/10/04 00:28:44;;;;;;;7.82;1.45;;;;;;;;;;5032570;28;20041;-63
2023/10/04 00:31:10;;;;;;;4.97;1.40;;;;;;;;;;5032475;28;20753;-63
2023/10/04 00:33:38;;;;;;;7.75;1.90;;;;;;;;;;5032844;28;20120;-63
2023/10/04 00:36:04;;;;;;;8.85;1.67;;;;;;;;;;5032697;28;20042;-63
2023/10/04 00:38:33;;;;;;;4.60;1.35;;;;;;;;;;5032478;28;20132;-63
2023/10/04 00:40:59;;;;;;;4.78;1.40;;;;;;;;;;5032684;28;20048;-63
2023/10/04 00:43:25;;;;;;;8.75;1.92;;;;;;;;;;5032486;28;20115;-63
2023/10/04 00:45:53;;;;;;;10.57;1.90;;;;;;;;;;5032088;28;20037;-63
2023/10/04 00:48:24;;;;;;;11.90;1.88;;;;;;;;;;5032520;28;20069;-63
2023/10/04 00:50:50;;;;;;;5.07;1.23;;;;;;;;;;5032333;28;20064;-63
2023/10/04 00:53:23;;;;;;;11.10;2.17;;;;;;;;;;5031788;28;20049;-63
2023/10/04 00:55:53;;;;;;;8.85;1.83;;;;;;;;;;5031911;28;20048;-63
2023/10/04 00:58:19;;;;;;;6.90;1.73;;;;;;;;;;5032497;28;20037;-63
2023/10/04 01:00:47;;;;;;;8.27;1.73;;;;;;;;;;5032043;28;20038;-63
2023/10/04 01:03:15;;;;;;;10.23;2.10;;;;;;;;;;5032262;28;20037;-63
2023/10/04 01:05:47;;;;;;;10.73;1.80;;;;;;;;;;5032251;28;20117;-63
2023/10/04 01:08:15;;;;;;;10.32;1.73;;;;;;;;;;5031865;28;20523;-63
2023/10/04 01:10:43;;;;;;;10.35;1.92;;;;;;;;;;5032258;28;20443;-63
2023/10/04 01:13:09;;;;;;;7.85;2.00;;;;;;;;;;5032119;28;20033;-63
2023/10/04 01:15:39;;;;;;;6.63;1.60;;;;;;;;;;5031518;28;20041;-63
2023/10/04 01:18:05;;;;;;;10.40;1.90;;;;;;;;;;5047678;28;20375;-63
2023/10/04 01:20:33;;;;;;;15.23;2.53;;;;;;;;;;5051600;28;20137;-63
2023/10/04 01:23:00;;;;;;;9.80;1.90;;;;;;;;;;5051440;28;20116;-63
2023/10/04 01:25:31;;;;;;;7.63;2.05;;;;;;;;;;5046986;28;20037;-63
2023/10/04 01:27:58;;;;;;;9.13;1.75;;;;;;;;;;5031831;28;20484;-63
2023/10/04 01:30:24;;;;;;;7.40;1.77;;;;;;;;;;5031445;28;20415;-63
2023/10/04 01:32:51;;;;;;;7.85;1.88;;;;;;;;;;5031795;28;20121;-63
2023/10/04 01:35:24;;;;;;;9.57;1.65;;;;;;;;;;5031416;28;20048;-63
2023/10/04 01:37:53;;;;;;;8.13;1.50;;;;;;;;;;5013699;28;20045;-63
2023/10/04 01:40:24;;;;;;;10.02;2.13;;;;;;;;;;5031600;28;20591;-63
2023/10/04 01:42:51;;;;;;;12.63;2.00;;;;;;;;;;5031488;28;20053;-63
2023/10/04 01:45:18;;;;;;;7.47;1.70;;;;;;;;;;5030648;28;20048;-63
2023/10/04 01:47:45;;;;;;;9.38;1.92;;;;;;;;;;5031540;28;20041;-63
2023/10/04 01:50:11;;;;;;;8.63;1.58;;;;;;;;;;5031253;28;20049;-63
2023/10/04 01:52:38;;;;;;;6.50;1.55;;;;;;;;;;5031102;28;20052;-63
2023/10/04 01:55:06;;;;;;;9.77;1.73;;;;;;;;;;5031333;28;20060;-63
2023/10/04 01:57:35;;;;;;;10.43;1.98;;;;;;;;;;5031339;28;20103;-63
2023/10/04 02:00:01;;;;;;;15.27;1.63;;;;;;;;;;5031080;28;20041;-63
2023/10/04 02:02:27;;;;;;;10.27;2.08;;;;;;;;;;5031357;28;20408;-63
2023/10/04 02:04:54;;;;;;;15.50;2.53;;;;;;;;;;5031081;28;20400;-63
2023/10/04 02:07:24;;;;;;;13.48;2.08;;;;;;;;;;5030070;28;20447;-63
2023/10/04 02:09:53;;;;;;;10.00;2.40;;;;;;;;;;5031084;28;20038;-63
2023/10/04 02:12:22;;;;;;;18.08;2.67;;;;;;;;;;5031098;28;20124;-63
2023/10/04 02:14:48;;;;;;;8.82;1.80;;;;;;;;;;5030814;28;20470;-63
2023/10/04 02:17:18;;;;;;;12.68;2.03;;;;;;;;;;5039866;28;20040;-63
2023/10/04 02:19:44;;;;;;;12.30;2.40;;;;;;;;;;5050872;28;20045;-63
2023/10/04 02:22:10;;;;;;;16.08;2.28;;;;;;;;;;5050799;28;20049;-63
2023/10/04 02:24:39;;;;;;;12.70;1.60;;;;;;;;;;5050857;28;20430;-63
2023/10/04 02:27:09;;;;;;;7.20;2.08;;;;;;;;;;5032540;28;20069;-63
2023/10/04 02:29:38;;;;;;;13.02;2.05;;;;;;;;;;5030641;28;20484;-63
2023/10/04 02:32:09;;;;;;;14.60;2.83;;;;;;;;;;5031009;28;20041;-63
2023/10/04 02:34:41;;;;;;;11.73;2.20;;;;;;;;;;5030860;28;20053;-63
2023/10/04 02:37:07;;;;;;;;;;;;;;;;;;5031062;28;20081;-63
2023/10/04 02:39:37;;;;;;;10.65;1.73;;;;;;;;;;5030897;28;19959;-63
2023/10/04 02:42:12;;;;;;;13.35;2.35;;;;;;;;;;5030824;28;20624;-63
2023/10/04 02:44:38;;;;;;;12.18;2.10;;;;;;;;;;5030361;28;20049;-63
2023/10/04 02:47:07;;;;;;;12.30;2.58;;;;;;;;;;5030983;28;20477;-63
2023/10/04 02:49:34;;;;;;;18.80;2.60;;;;;;;;;;5030932;28;20377;-63
2023/10/04 02:52:00;;;;;;;13.18;2.30;;;;;;;;;;5030067;28;20089;-63
2023/10/04 02:54:28;;;;;;;7.90;1.88;;;;;;;;;;5030737;28;20049;-63
2023/10/04 02:56:55;;;;;;;9.77;2.50;;;;;;;;;;5030551;28;20096;-63
2023/10/04 02:59:24;;;;;;;14.63;2.60;;;;;;;;;;5030604;28;20095;-63
2023/10/04 03:01:50;;;;;;;14.10;2.30;;;;;;;;;;5030929;28;20045;-63
2023/10/04 03:04:16;;;;;;;15.27;2.72;;;;;;;;;;5030793;28;20106;-63
2023/10/04 03:06:43;;;;;;;7.82;2.05;;;;;;;;;;5030411;28;20045;-63
2023/10/04 03:09:09;;;;;;;10.20;2.17;;;;;;;;;;5030746;28;20045;-63
2023/10/04 03:11:37;;;;;;;6.38;1.92;;;;;;;;;;5030666;28;20038;-63
2023/10/04 03:14:06;;;;;;;8.80;1.98;;;;;;;;;;5030309;28;20152;-63
2023/10/04 03:16:33;;;;;;;14.00;2.40;;;;;;;;;;5033270;28;20253;-63
2023/10/04 03:18:59;;;;;;;8.13;1.98;;;;;;;;;;5052368;28;20044;-63
2023/10/04 03:21:30;;;;;;;13.57;2.40;;;;;;;;;;5053836;28;20044;-63
2023/10/04 03:23:56;;;;;;;15.27;2.25;;;;;;;;;;5054102;28;20068;-63
2023/10/04 03:26:22;;;;;;;11.93;2.33;;;;;;;;;;5041774;28;20472;-63
2023/10/04 03:28:48;;;;;;;10.15;2.00;;;;;;;;;;5033866;28;20037;-63
2023/10/04 03:31:16;;;;;;;11.45;2.65;;;;;;;;;;5034150;28;20042;-63
2023/10/04 03:33:45;;;;;;;14.75;2.60;;;;;;;;;;5033809;28;20049;-63
2023/10/04 03:36:17;;;;;;;12.73;3.20;;;;;;;;;;5033459;28;20049;-63
2023/10/04 03:38:43;;;;;;;12.40;2.65;;;;;;;;;;5033948;28;20053;-63
2023/10/04 03:41:09;;;;;;;7.03;2.22;;;;;;;;;;5033824;28;20045;-63
2023/10/04 03:43:36;;;;;;;11.48;2.20;;;;;;;;;;5033507;28;20613;-63
2023/10/04 03:46:17;;;;;;;10.55;2.40;;;;;;;;;;5033517;28;20061;-63
2023/10/04 03:48:46;;;;;;;11.80;2.28;;;;;;;;;;5033753;28;20660;-63
2023/10/04 03:51:13;;;;;;;7.07;2.25;;;;;;;;;;5033017;28;20685;-63
2023/10/04 03:53:43;;;;;;;9.77;2.47;;;;;;;;;;5033652;28;20048;-63
2023/10/04 03:56:17;;;;;;;15.65;2.42;;;;;;;;;;5033450;28;20051;-63
2023/10/04 03:58:43;;;;;;;13.57;2.50;;;;;;;;;;5033218;28;20734;-63
2023/10/04 04:01:10;;;;;;;11.38;2.30;;;;;;;;;;5033505;28;20046;-63
2023/10/04 04:03:36;;;;;;;11.32;2.60;;;;;;;;;;5015329;28;20048;-63
2023/10/04 04:06:02;;;;;;;13.23;2.63;;;;;;;;;;5032644;28;20045;-63
2023/10/04 04:08:28;;;;;;;14.40;2.65;;;;;;;;;;5033328;28;20037;-63
2023/10/04 04:10:55;;;;;;;10.40;2.40;;;;;;;;;;5033166;28;20523;-63
2023/10/04 04:13:21;;;;;;;11.00;2.38;;;;;;;;;;5032893;28;20069;-63
2023/10/04 04:15:48;;;;;;;7.40;2.03;;;;;;;;;;5033079;28;20041;-63
2023/10/04 04:18:20;;;;;;;15.27;2.97;;;;;;;;;;5050056;28;20041;-63
2023/10/04 04:20:49;;;;;;;10.90;2.25;;;;;;;;;;5052692;28;20047;-63
2023/10/04 04:23:15;;;;;;;10.30;2.30;;;;;;;;;;5053024;28;20120;-63
2023/10/04 04:25:42;;;;;;;9.07;2.10;;;;;;;;;;5046004;28;20076;-63
2023/10/04 04:28:14;;;;;;;12.85;2.95;;;;;;;;;;5032502;28;20112;-63
2023/10/04 04:30:41;;;;;;;13.82;2.90;;;;;;;;;;5031771;28;20499;-63
2023/10/04 04:33:07;;;;;;;10.63;2.40;;;;;;;;;;5032916;28;20053;-63
2023/10/04 04:40:48;;;;;;;8.95;1.98;;;;;;;;;;5032612;28;20050;-63
2023/10/04 04:45:52;;;;;;;12.18;2.83;;;;;;;;;;5032503;28;20053;-64
2023/10/04 04:48:23;;;;;;;12.18;2.63;;;;;;;;;;5032588;28;20044;-63
2023/10/04 04:50:49;;;;;;;12.27;3.28;;;;;;;;;;5031968;28;20136;-63
2023/10/04 04:53:18;;;;;;;13.27;2.45;;;;;;;;;;5032213;28;20046;-63
2023/10/04 04:55:44;;;;;;;10.88;2.95;;;;;;;;;;5032254;28;20045;-63
2023/10/04 04:58:13;;;;;;;11.45;2.35;;;;;;;;;;5031956;28;20552;-63
2023/10/04 05:00:42;;;;;;;11.80;2.30;;;;;;;;;;5032280;28;20046;-63
2023/10/04 05:03:09;;;;;;;6.63;2.20;;;;;;;;;;5031984;28;20084;-63
2023/10/04 05:05:35;;;;;;;11.38;2.42;;;;;;;;;;5031688;28;20124;-64
2023/10/04 05:08:01;;;;;;;10.15;2.72;;;;;;;;;;5032215;28;20056;-64
2023/10/04 05:10:34;;;;;;;11.07;3.17;;;;;;;;;;5032242;28;20034;-64
2023/10/04 05:13:01;;;;;;;13.70;2.70;;;;;;;;;;5031768;28;20519;-64
2023/10/04 05:15:32;;;;;;;11.65;2.53;;;;;;;;;;5032011;28;20053;-64
2023/10/04 05:18:11;;;;;;;12.47;2.90;;;;;;;;;;5046475;28;20123;-64
2023/10/04 05:20:37;;;;;;;11.32;3.17;;;;;;;;;;5051458;28;20279;-64
2023/10/04 05:23:04;;;;;;;10.95;2.63;;;;;;;;;;5051597;28;20048;-64
2023/10/04 05:25:30;;;;;;;14.70;3.15;;;;;;;;;;5046586;28;20041;-64
2023/10/04 05:28:08;;;;;;;11.10;2.67;;;;;;;;;;5031459;28;20044;-64
2023/10/04 05:30:34;;;;;;;13.70;2.95;;;;;;;;;;5031878;28;20038;-64
2023/10/04 05:33:01;;;;;;;11.70;3.20;;;;;;;;;;5031890;28;20530;-64
2023/10/04 05:35:27;;;;;;;13.70;3.10;;;;;;;;;;5030843;28;20049;-64
2023/10/04 05:37:53;;;;;;;9.23;2.72;;;;;;;;;;5031553;28;20076;-64
2023/10/04 05:40:25;;;;;;;10.20;2.60;;;;;;;;;;5031349;28;20376;-64
2023/10/04 05:42:55;;;;;;;11.68;2.50;;;;;;;;;;5031178;28;20116;-64
2023/10/04 05:45:22;;;;;;;8.85;2.72;;;;;;;;;;5031344;28;20120;-64
2023/10/04 05:47:50;;;;;;;11.98;3.08;;;;;;;;;;5031549;28;20043;-64
2023/10/04 05:50:22;;;;;;;12.70;3.03;;;;;;;;;;5030853;28;20042;-64
2023/10/04 05:52:49;;;;;;;13.93;3.20;;;;;;;;;;5031490;28;20379;-63
2023/10/04 05:55:16;;;;;;;16.02;3.17;;;;;;;;;;5031315;28;20392;-64
2023/10/04 05:57:46;;;;;;;10.07;2.60;;;;;;;;;;5030977;28;20049;-64
2023/10/04 06:02:52;;;;;;;13.20;3.25;;;;;;;;;;5031269;28;20049;-64
2023/10/04 06:05:19;;;;;;;14.85;2.90;;;;;;;;;;5030771;28;20056;-63
2023/10/04 06:07:49;;;;;;;13.65;2.88;;;;;;;;;;5031261;28;20087;-63
2023/10/04 06:10:16;;;;;;;13.90;3.15;;;;;;;;;;5031235;28;20042;-63
2023/10/04 06:12:43;;;;;;;8.80;2.50;;;;;;;;;;5030692;28;20419;-63
2023/10/04 06:15:13;;;;;;;12.32;3.10;;;;;;;;;;5031110;28;20041;-63
2023/10/04 06:17:43;;;;;;;14.68;2.97;;;;;;;;;;5042802;28;20049;-63
2023/10/04 06:20:33;;;;;;;9.63;3.05;;;;;;;;;;5050638;28;20037;-63
2023/10/04 06:23:00;;;;;;;21.15;3.65;;;;;;;;;;5051126;28;20647;-63
2023/10/04 06:25:29;;;;;;;15.25;3.00;;;;;;;;;;5045645;28;20103;-63
2023/10/04 06:27:56;;;;;;;13.25;3.20;;;;;;;;;;5031056;28;20091;-63
2023/10/04 06:30:24;;;;;;;12.35;2.88;;;;;;;;;;5013282;28;20379;-63
2023/10/04 06:32:53;;;;;;;9.32;2.88;;;;;;;;;;5030665;28;20073;-63
2023/10/04 06:35:23;;;;;;;10.38;2.90;;;;;;;;;;5030856;28;20077;-64
2023/10/04 06:37:50;;;;;;;13.07;3.20;;;;;;;;;;5037154;28;20052;-64
2023/10/04 06:40:19;;;;;;;12.27;3.03;;;;;;;;;;5049719;28;20079;-63
2023/10/04 06:42:45;;;;;;;13.23;3.05;;;;;;;;;;5050361;28;20426;-63
2023/10/04 06:45:12;;;;;;;14.20;3.30;;;;;;;;;;5050251;28;20495;-64
2023/10/04 06:47:39;;;;;;;14.25;3.30;;;;;;;;;;5031673;28;20043;-64
2023/10/04 06:50:07;;;;;;;11.43;3.00;;;;;;;;;;5050449;28;20087;-64
2023/10/04 06:52:34;;;;;;;11.35;3.22;;;;;;;;;;5050455;28;20048;-64
2023/10/04 06:55:02;;;;;;;10.10;2.92;;;;;;;;;;5053564;28;20044;-64
2023/10/04 06:57:29;;;;;;;13.80;4.22;;;;;;;;;;5054040;28;20048;-64
2023/10/04 06:59:56;;;;;;;19.85;4.53;;;;;;;;;;5054489;28;20045;-64
2023/10/04 07:02:23;;;;;;;15.85;3.50;;;;;;;;;;5053912;28;20715;-63
2023/10/04 07:04:50;;;;;;;12.27;3.97;;;;;;;;;;5036076;28;20427;-64
2023/10/04 07:07:16;;;;;;;14.05;3.53;;;;;;;;;;5036184;28;20045;-63
2023/10/04 07:09:42;;;;;;;14.10;3.58;;;;;;;;;;5053887;28;20048;-62
2023/10/04 07:12:09;;;;;;;13.18;3.58;;;;;;;;;;5046295;28;20036;-63
2023/10/04 07:14:35;;;;;;;12.20;3.55;;;;;;;;;;5057077;28;20048;-63
2023/10/04 07:17:02;;;;;;;11.88;3.33;;;;;;;;;;5054071;28;20041;-63
2023/10/04 07:19:29;;;;;;;15.23;3.55;;;;;;;;;;5059579;28;20475;-63
2023/10/04 07:21:57;;;;;;;13.85;3.55;;;;;;;;;;5073477;28;20110;-63
2023/10/04 07:24:23;;;;;;;13.07;3.65;;;;;;;;;;5073257;28;20109;-63
2023/10/04 07:26:55;;;;;;;12.65;2.83;;;;;;;;;;5064649;28;20422;-63
2023/10/04 07:29:21;;;;;;;;;;;;;;;;;;5074129;28;20040;-63
2023/10/04 07:31:48;;;;;;;10.93;2.88;;;;;;;;;;5073251;28;19916;-63
2023/10/04 07:34:14;;;;;;;15.88;3.20;;;;;;;;;;5072632;28;20044;-63
2023/10/04 07:36:42;;;;;;;18.10;3.83;;;;;;;;;;5073475;28;20047;-63
2023/10/04 07:39:08;;;;;;;18.30;3.67;;;;;;;;;;5073346;28;20087;-63
2023/10/04 07:41:36;;;;;;;14.38;3.53;;;;;;;;;;5072859;28;20390;-63
2023/10/04 07:44:03;;;;;;;14.57;3.67;;;;;;;;;;5059793;28;20045;-64
2023/10/04 07:46:31;;;;;;;9.70;3.45;;;;;;;;;;5052160;28;20044;-63
2023/10/04 07:48:59;;;;;;;10.48;2.88;;;;;;;;;;5052832;28;20041;-63
2023/10/04 07:51:25;;;;;;;10.50;2.70;;;;;;;;;;5064266;28;20153;-63
2023/10/04 07:53:52;;;;;;;16.05;3.78;;;;;;;;;;5072651;28;20044;-63
2023/10/04 07:56:19;;;;;;;14.68;3.55;;;;;;;;;;5071476;28;20479;-64
2023/10/04 07:58:46;;;;;;;12.40;3.25;;;;;;;;;;5058846;28;20044;-64
2023/10/04 08:01:14;;;;;;;14.63;3.45;;;;;;;;;;5073151;28;20040;-63
2023/10/04 08:03:40;;;;;;;12.13;3.55;;;;;;;;;;5071921;28;20123;-63
2023/10/04 08:06:11;;;;;;;17.85;3.42;;;;;;;;;;5071534;28;20039;-63
2023/10/04 08:08:41;;;;;;;15.80;3.38;;;;;;;;;;5072748;28;20119;-64
2023/10/04 08:11:11;;;;;;;11.85;2.78;;;;;;;;;;5072543;28;20422;-63
2023/10/04 08:13:38;;;;;;;14.02;3.72;;;;;;;;;;5071862;28;20612;-63
2023/10/04 08:16:05;;;;;;;13.63;4.22;;;;;;;;;;5072175;28;20071;-63
2023/10/04 08:18:31;;;;;;;13.15;3.63;;;;;;;;;;5055750;28;20068;-63
2023/10/04 08:20:57;;;;;;;15.20;3.63;;;;;;;;;;5058355;28;20079;-63
2023/10/04 08:23:23;;;;;;;15.65;4.28;;;;;;;;;;5045236;28;20047;-63
2023/10/04 08:25:49;;;;;;;14.48;4.30;;;;;;;;;;5063529;28;20064;-64
2023/10/04 08:28:16;;;;;;;13.02;3.45;;;;;;;;;;5069961;28;20119;-63
2023/10/04 08:30:42;;;;;;;14.63;3.72;;;;;;;;;;5072168;28;20041;-63
2023/10/04 08:33:09;;;;;;;9.18;3.65;;;;;;;;;;5068634;28;20072;-63
2023/10/04 08:35:39;;;;;;;13.52;3.90;;;;;;;;;;5063636;28;20052;-64
2023/10/04 08:38:05;;;;;;;12.90;3.80;;;;;;;;;;5072210;28;20414;-64
2023/10/04 08:40:35;;;;;;;15.55;3.40;;;;;;;;;;5071356;28;20052;-63
2023/10/04 08:43:01;;;;;;;10.35;3.55;;;;;;;;;;5071920;28;20048;-63
2023/10/04 08:45:29;;;;;;;11.77;3.80;;;;;;;;;;5071552;28;20028;-63
2023/10/04 08:47:56;;;;;;;12.75;3.08;;;;;;;;;;5071558;28;20044;-63
2023/10/04 08:50:37;;;;;;;20.13;4.00;;;;;;;;;;5071089;28;20051;-63
2023/10/04 08:53:10;;;;;;;14.38;3.80;;;;;;;;;;5071719;28;20044;-64
2023/10/04 08:55:41;;;;;;;15.73;3.97;;;;;;;;;;5070680;28;20494;-63
2023/10/04 08:58:07;;;;;;;19.02;3.83;;;;;;;;;;5071874;28;20383;-63
2023/10/04 09:00:35;;;;;;;15.02;3.95;;;;;;;;;;5071460;28;20483;-63
2023/10/04 09:03:03;;;;;;;16.20;4.30;;;;;;;;;;5071089;28;20083;-64
2023/10/04 09:05:29;;;;;;;15.52;3.80;;;;;;;;;;5071023;28;20044;-64
2023/10/04 09:07:56;;;;;;;15.68;3.88;;;;;;;;;;5071432;28;20040;-63
2023/10/04 09:10:23;;;;;;;14.77;3.55;;;;;;;;;;5052696;28;20442;-63
2023/10/04 09:12:49;;;;;;;12.77;3.55;;;;;;;;;;5071539;28;20112;-64
2023/10/04 09:15:15;;;;;;;13.55;3.50;;;;;;;;;;5070865;28;20044;-63
2023/10/04 09:17:55;;;;;;;14.80;3.88;;;;;;;;;;5058190;28;20044;-63
2023/10/04 09:20:23;;;;;;;12.00;3.55;;;;;;;;;;5068360;28;20453;-63
2023/10/04 09:22:50;;;;;;;15.80;4.05;;;;;;;;;;5071210;28;20106;-63
2023/10/04 09:25:16;;;;;;;16.65;4.15;;;;;;;;;;5067335;28;20098;-64
2023/10/04 09:27:54;;;;;;;15.15;4.05;;;;;;;;;;5062461;28;20044;-63
2023/10/04 09:30:21;;;;;;;10.38;3.42;;;;;;;;;;5070929;28;20040;-63
2023/10/04 09:32:47;;;;;;;17.30;3.70;;;;;;;;;;5030995;28;20042;-63
2023/10/04 09:35:13;;;;;;;12.23;3.40;;;;;;;;;;5037837;28;20575;-63
2023/10/04 09:37:44;;;;;;;14.82;3.53;;;;;;;;;;5050734;28;20040;-63
2023/10/04 09:40:11;;;;;;;16.50;3.55;;;;;;;;;;5065498;28;20045;-63
2023/10/04 09:42:46;;;;;;;16.15;4.20;;;;;;;;;;5070764;28;20094;-63
2023/10/04 09:45:13;;;;;;;15.05;4.35;;;;;;;;;;5069996;28;20055;-63
2023/10/04 09:47:39;;;;;;;12.35;3.90;;;;;;;;;;5070527;28;20040;-63
2023/10/04 09:50:19;;;;;;;17.73;3.70;;;;;;;;;;5070762;28;20549;-63
2023/10/04 09:52:45;;;;;;;15.70;3.78;;;;;;;;;;5070420;28;20060;-63
2023/10/04 09:55:13;;;;;;;16.88;4.03;;;;;;;;;;5064857;28;20443;-63
2023/10/04 09:57:42;;;;;;;15.60;4.03;;;;;;;;;;5050841;28;20496;-63
2023/10/04 10:00:17;;;;;;;14.93;3.92;;;;;;;;;;5064031;28;20051;-63
2023/10/04 10:02:46;;;;;;;13.43;3.38;;;;;;;;;;5070442;28;20052;-63
2023/10/04 10:05:19;;;;;;;14.23;3.80;;;;;;;;;;5070396;28;20044;-63
2023/10/04 10:07:48;;;;;;;16.70;4.35;;;;;;;;;;5070182;28;20085;-63
2023/10/04 10:10:16;;;;;;;15.65;3.95;;;;;;;;;;5052923;28;20037;-63
2023/10/04 10:12:45;;;;;;;15.13;3.95;;;;;;;;;;5070678;28;20040;-63
2023/10/04 10:15:13;;;;;;;14.73;4.10;;;;;;;;;;5070003;28;20412;-63
2023/10/04 10:17:40;;;;;;;12.48;4.20;;;;;;;;;;5057830;28;20048;-63
2023/10/04 10:20:09;;;;;;;16.70;3.70;;;;;;;;;;5063627;28;20124;-64
2023/10/04 10:22:35;;;;;;;12.88;3.65;;;;;;;;;;5070113;28;20040;-63
2023/10/04 10:25:04;;;;;;;14.13;3.50;;;;;;;;;;5069250;28;20063;-63
2023/10/04 10:27:30;;;;;;;13.77;3.65;;;;;;;;;;5057840;28;20125;-62
2023/10/04 10:29:59;;;;;;;16.10;4.05;;;;;;;;;;5073476;28;20471;-62
2023/10/04 10:32:25;;;;;;;13.85;3.90;;;;;;;;;;5074416;28;20435;-62
2023/10/04 10:34:52;;;;;;;13.00;3.90;;;;;;;;;;5056260;28;20054;-62
2023/10/04 10:37:23;;;;;;;14.50;3.90;;;;;;;;;;5074344;28;20141;-62
2023/10/04 10:39:55;;;;;;;15.15;3.55;;;;;;;;;;5074322;28;20052;-62
2023/10/04 10:42:21;;;;;;;16.40;3.85;;;;;;;;;;5074357;28;20481;-62
2023/10/04 10:44:48;;;;;;;9.90;3.60;;;;;;;;;;5073713;28;20044;-62
2023/10/04 10:47:25;;;;;;;15.65;4.38;;;;;;;;;;5074385;28;20110;-62
2023/10/04 10:49:58;;;;;;;12.57;3.58;;;;;;;;;;5074349;28;20425;-62
2023/10/04 10:52:46;;;;;;;11.07;3.45;;;;;;;;;;5073533;28;20076;-62
2023/10/04 10:55:17;;;;;;;10.27;3.63;;;;;;;;;;5074190;28;20415;-62
2023/10/04 10:57:45;;;;;;;13.38;3.83;;;;;;;;;;5074008;28;20040;-62
2023/10/04 11:00:14;;;;;;;18.85;5.18;;;;;;;;;;5073695;28;20087;-62
2023/10/04 11:02:40;;;;;;;13.00;4.05;;;;;;;;;;5073991;28;20059;-62
2023/10/04 11:05:07;;;;;;;11.77;3.67;;;;;;;;;;5073733;28;20040;-62
2023/10/04 11:07:33;;;;;;;12.45;4.03;;;;;;;;;;5073797;28;20037;-62
2023/10/04 11:09:59;;;;;;;17.00;4.45;;;;;;;;;;5056249;28;20036;-62
2023/10/04 11:12:25;;;;;;;13.18;3.47;;;;;;;;;;5073824;28;20348;-62
2023/10/04 11:14:52;;;;;;;12.05;4.03;;;;;;;;;;5073520;28;20040;-62
2023/10/04 11:17:22;;;;;;;12.18;3.92;;;;;;;;;;5064597;28;20051;-62
2023/10/04 11:19:51;;;;;;;13.48;4.15;;;;;;;;;;5062545;28;20433;-62
2023/10/04 11:22:19;;;;;;;14.15;4.25;;;;;;;;;;5055497;28;20052;-62
2023/10/04 11:24:46;;;;;;;14.05;3.92;;;;;;;;;;5073540;28;20045;-62
2023/10/04 11:27:17;;;;;;;12.43;3.97;;;;;;;;;;5057953;28;20116;-62
2023/10/04 11:29:44;;;;;;;13.38;3.92;;;;;;;;;;5073304;28;20044;-62
2023/10/04 11:32:10;;;;;;;14.60;3.90;;;;;;;;;;5073515;28;20043;-62
2023/10/04 11:34:39;;;;;;;14.82;4.38;;;;;;;;;;5073509;28;20073;-62
2023/10/04 11:37:05;;;;;;;13.70;4.03;;;;;;;;;;5072942;28;20044;-62
2023/10/04 11:39:35;;;;;;;14.20;3.35;;;;;;;;;;5073029;28;20041;-62
2023/10/04 11:42:05;;;;;;;17.63;4.82;;;;;;;;;;5063621;28;20048;-61
2023/10/04 11:44:32;;;;;;;15.82;4.20;;;;;;;;;;5066582;28;20032;-63
2023/10/04 11:47:00;;;;;;;12.45;3.90;;;;;;;;;;5073074;28;20102;-62
2023/10/04 11:49:29;;;;;;;15.88;4.40;;;;;;;;;;5073433;28;20115;-62
2023/10/04 11:51:59;;;;;;;18.38;4.80;;;;;;;;;;5072304;28;20487;-62
2023/10/04 11:54:36;;;;;;;14.10;4.07;;;;;;;;;;5073143;28;20105;-62
2023/10/04 11:57:03;;;;;;;16.63;4.40;;;;;;;;;;5072962;28;20047;-62
2023/10/04 11:59:30;;;;;;;10.35;3.78;;;;;;;;;;5072745;28;20044;-62
2023/10/04 12:01:57;;;;;;;11.10;3.88;;;;;;;;;;5072807;28;20044;-62
2023/10/04 12:04:23;;;;;;;14.13;4.45;;;;;;;;;;5072762;28;20049;-62
2023/10/04 12:07:06;;;;;;;11.25;3.97;;;;;;;;;;5072714;28;20153;-62
2023/10/04 12:09:34;;;;;;;13.45;3.50;;;;;;;;;;5073191;28;20037;-62
2023/10/04 12:12:06;;;;;;;13.75;4.53;;;;;;;;;;5072731;28;20045;-62
2023/10/04 12:14:33;;;;;;;13.50;3.92;;;;;;;;;;5072519;28;20052;-61
2023/10/04 12:17:03;;;;;;;16.83;4.25;;;;;;;;;;5065986;28;20037;-62
2023/10/04 12:19:30;;;;;;;13.05;4.15;;;;;;;;;;5057323;28;20044;-62
2023/10/04 12:21:57;;;;;;;14.90;3.83;;;;;;;;;;5072150;28;20044;-62
2023/10/04 12:24:23;;;;;;;12.27;4.20;;;;;;;;;;5072231;28;20090;-62
2023/10/04 12:26:55;;;;;;;16.13;3.72;;;;;;;;;;5056316;28;20143;-62
2023/10/04 12:29:22;;;;;;;14.07;3.67;;;;;;;;;;5071816;28;20075;-62
2023/10/04 12:31:50;;;;;;;14.68;3.80;;;;;;;;;;5071989;28;20407;-62
2023/10/04 12:34:16;;;;;;;12.25;4.15;;;;;;;;;;5057991;28;20053;-62
2023/10/04 12:36:42;;;;;;;13.13;3.78;;;;;;;;;;5051485;28;20043;-62
2023/10/04 12:39:08;;;;;;;12.07;3.70;;;;;;;;;;5052947;28;20088;-61
2023/10/04 12:41:34;;;;;;;15.52;3.60;;;;;;;;;;5072099;28;20048;-61
2023/10/04 12:44:02;;;;;;;12.55;3.17;;;;;;;;;;5070754;28;20140;-62
2023/10/04 12:46:28;;;;;;;14.38;4.07;;;;;;;;;;5071989;28;20044;-61
2023/10/04 12:48:55;;;;;;;9.77;3.45;;;;;;;;;;5071713;28;20042;-62
2023/10/04 12:51:21;;;;;;;12.68;3.45;;;;;;;;;;5070323;28;20144;-62
2023/10/04 12:53:47;;;;;;;12.93;3.95;;;;;;;;;;5071514;28;20420;-62
2023/10/04 12:56:13;;;;;;;8.90;3.30;;;;;;;;;;5071492;28;20037;-62
2023/10/04 12:58:40;;;;;;;10.18;3.97;;;;;;;;;;5071288;28;20040;-62
2023/10/04 13:01:06;;;;;;;14.20;3.83;;;;;;;;;;5071739;28;20029;-62
2023/10/04 13:03:33;;;;;;;14.35;3.65;;;;;;;;;;5071491;28;20353;-62
2023/10/04 13:05:59;;;;;;;11.13;3.65;;;;;;;;;;5070905;28;20371;-62
2023/10/04 13:08:25;;;;;;;11.50;4.00;;;;;;;;;;5071209;28;20112;-62
2023/10/04 13:10:52;;;;;;;10.18;3.58;;;;;;;;;;5071330;28;20115;-62
2023/10/04 13:13:18;;;;;;;10.93;3.30;;;;;;;;;;5071072;28;20521;-62
2023/10/04 13:15:44;;;;;;;15.75;3.45;;;;;;;;;;5068007;28;20084;-62
2023/10/04 13:18:11;;;;;;;11.32;3.50;;;;;;;;;;5034729;28;20112;-62
2023/10/04 13:20:40;;;;;;;14.18;3.55;;;;;;;;;;5055258;28;20386;-62
2023/10/04 13:23:07;;;;;;;12.05;3.80;;;;;;;;;;5071296;28;20055;-62
2023/10/04 13:25:33;;;;;;;11.65;3.25;;;;;;;;;;5065073;28;20041;-62
2023/10/04 13:28:02;;;;;;;13.40;3.70;;;;;;;;;;5057226;28;20090;-62
2023/10/04 13:30:28;;;;;;;10.70;2.97;;;;;;;;;;5053379;28;20032;-62
2023/10/04 13:32:56;;;;;;;19.25;3.80;;;;;;;;;;5070297;28;20052;-62
2023/10/04 13:35:22;;;;;;;11.60;3.25;;;;;;;;;;5070027;28;20123;-62
2023/10/04 13:37:51;;;;;;;9.98;3.22;;;;;;;;;;5070868;28;20174;-62
2023/10/04 13:40:21;;;;;;;15.27;3.67;;;;;;;;;;5070607;28;20097;-62
2023/10/04 13:42:48;;;;;;;11.63;3.25;;;;;;;;;;5052417;28;20089;-62
2023/10/04 13:45:16;;;;;;;16.13;3.53;;;;;;;;;;5070062;28;20105;-62
2023/10/04 13:47:42;;;;;;;10.27;3.20;;;;;;;;;;5070755;28;20482;-62
2023/10/04 13:50:09;;;;;;;14.88;3.10;;;;;;;;;;5070303;28;20044;-62
2023/10/04 13:52:35;;;;;;;13.40;3.65;;;;;;;;;;5070505;28;20063;-62
2023/10/04 13:55:01;;;;;;;18.58;3.72;;;;;;;;;;5070516;28;20170;-62
2023/10/04 13:57:27;;;;;;;14.15;3.50;;;;;;;;;;5070242;28;20390;-62
2023/10/04 13:59:53;;;;;;;9.45;3.60;;;;;;;;;;5069609;28;20037;-62
2023/10/04 14:02:19;;;;;;;13.65;3.30;;;;;;;;;;5066826;28;20490;-62
2023/10/04 14:04:46;;;;;;;10.82;3.50;;;;;;;;;;5054217;28;20032;-62
2023/10/04 14:07:13;;;;;;;12.15;3.38;;;;;;;;;;5049748;28;20052;-62
2023/10/04 14:09:40;;;;;;;14.63;3.88;;;;;;;;;;5069286;28;20040;-63
2023/10/04 14:12:06;;;;;;;10.95;3.88;;;;;;;;;;5069380;28;20380;-62
2023/10/04 14:14:32;;;;;;;11.90;3.50;;;;;;;;;;5043530;28;20042;-62
2023/10/04 14:17:05;;;;;;;12.27;2.78;;;;;;;;;;5035871;28;20641;-62
2023/10/04 14:19:32;;;;;;;9.35;3.17;;;;;;;;;;5030769;28;20045;-62
2023/10/04 14:21:58;;;;;;;13.48;3.63;;;;;;;;;;5069064;28;20044;-62
2023/10/04 14:24:24;;;;;;;13.02;3.13;;;;;;;;;;5068539;28;20045;-62
2023/10/04 14:26:53;;;;;;;13.40;3.05;;;;;;;;;;5052794;28;20671;-62
2023/10/04 14:29:22;;;;;;;12.20;3.50;;;;;;;;;;5049675;28;20065;-62
2023/10/04 14:31:48;;;;;;;14.40;3.92;;;;;;;;;;5050603;28;20045;-62
2023/10/04 14:34:15;;;;;;;15.82;3.50;;;;;;;;;;5050569;28;20491;-62
2023/10/04 14:36:42;;;;;;;9.98;3.45;;;;;;;;;;5050580;28;20120;-62
2023/10/04 14:39:08;;;;;;;11.77;3.60;;;;;;;;;;5050883;28;20041;-62
2023/10/04 14:41:37;;;;;;;15.10;3.45;;;;;;;;;;5050445;28;20045;-62
2023/10/04 14:44:03;;;;;;;11.52;2.78;;;;;;;;;;5050769;28;20083;-62
2023/10/04 14:46:32;;;;;;;10.48;3.00;;;;;;;;;;5050426;28;20079;-62
2023/10/04 14:48:58;;;;;;;8.73;2.80;;;;;;;;;;5050425;28;20076;-62